Time,TemperatureF,DewpointF,PressureIn,WindDirection,WindDirectionDegrees,WindSpeedMPH,WindSpeedGustMPH,Humidity,HourlyPrecipIn,Conditions,Clouds,dailyrainin,SoftwareType,DateUTC
2013-01-11 00:04:00,39.0,21.0,30.23,ENE,68,2.0,-999.0,49,-99.99,,,-99.99,,2013-01-11 05:04:00,
2013-01-11 00:13:00,39.0,21.0,30.23,ENE,68,2.0,-999.0,49,-99.99,,,-99.99,,2013-01-11 05:13:00,
2013-01-11 00:23:00,39.0,21.0,30.23,ESE,107,1.0,-999.0,49,-99.99,,,-99.99,,2013-01-11 05:23:00,
2013-01-11 00:33:00,39.0,20.0,30.22,East,79,2.0,-999.0,46,-99.99,,,-99.99,,2013-01-11 05:33:00,
2013-01-11 00:43:00,39.0,20.0,30.22,East,79,2.0,-999.0,46,-99.99,,,-99.99,,2013-01-11 05:43:00,
2013-01-11 00:52:00,40.0,21.0,30.21,SE,124,1.0,-999.0,46,-99.99,,,-99.99,,2013-01-11 05:52:00,
2013-01-11 01:03:00,40.0,21.0,30.21,ESE,103,2.0,-999.0,46,-99.99,,,-99.99,,2013-01-11 06:03:00,
2013-01-11 01:12:00,40.0,21.0,30.21,ESE,103,2.0,-999.0,46,-99.99,,,-99.99,,2013-01-11 06:12:00,
2013-01-11 01:22:00,40.0,21.0,30.19,East,90,2.0,-999.0,46,-99.99,,,-99.99,,2013-01-11 06:22:00,
2013-01-11 01:32:00,40.0,21.0,30.18,ESE,121,2.0,-999.0,46,-99.99,,,-99.99,,2013-01-11 06:32:00,
2013-01-11 01:42:00,40.0,21.0,30.18,ESE,121,2.0,-999.0,46,-99.99,,,-99.99,,2013-01-11 06:42:00,
2013-01-11 01:52:00,40.0,21.0,30.17,ESE,103,3.0,-999.0,47,-99.99,,,-99.99,,2013-01-11 06:52:00,
2013-01-11 02:02:00,40.0,21.0,30.17,ESE,103,3.0,-999.0,47,-99.99,,,-99.99,,2013-01-11 07:02:00,
2013-01-11 02:12:00,40.0,21.0,30.17,ESE,103,3.0,-999.0,47,-99.99,,,-99.99,,2013-01-11 07:12:00,
2013-01-11 02:22:00,40.0,22.0,30.16,ESE,123,3.0,-999.0,48,-99.99,,,-99.99,,2013-01-11 07:22:00,
2013-01-11 02:32:00,40.0,22.0,30.16,ENE,75,2.0,-999.0,49,-99.99,,,-99.99,,2013-01-11 07:32:00,
2013-01-11 02:42:00,40.0,22.0,30.16,SE,124,2.0,-999.0,49,-99.99,,,-99.99,,2013-01-11 07:42:00,
2013-01-11 02:52:00,40.0,22.0,30.16,SE,124,2.0,-999.0,49,-99.99,,,-99.99,,2013-01-11 07:52:00,
2013-01-11 03:02:00,40.0,23.0,30.15,ESE,102,2.0,-999.0,51,-99.99,,,-99.99,,2013-01-11 08:02:00,
2013-01-11 03:12:00,40.0,23.0,30.14,ENE,66,0.0,-999.0,50,-99.99,,,-99.99,,2013-01-11 08:12:00,
2013-01-11 03:22:00,40.0,23.0,30.14,ENE,66,0.0,-999.0,50,-99.99,,,-99.99,,2013-01-11 08:22:00,
2013-01-11 03:32:00,40.0,23.0,30.14,ESE,109,1.0,-999.0,50,-99.99,,,-99.99,,2013-01-11 08:32:00,
2013-01-11 03:42:00,40.0,23.0,30.14,ESE,109,1.0,-999.0,50,-99.99,,,-99.99,,2013-01-11 08:42:00,
2013-01-11 03:52:00,40.0,23.0,30.14,SSE,148,2.0,-999.0,51,-99.99,,,-99.99,,2013-01-11 08:52:00,
2013-01-11 04:02:00,40.0,25.0,30.13,East,100,3.0,-999.0,55,-99.99,,,-99.99,,2013-01-11 09:02:00,
2013-01-11 04:12:00,40.0,25.0,30.13,East,100,3.0,-999.0,55,-99.99,,,-99.99,,2013-01-11 09:12:00,
2013-01-11 04:23:00,40.0,25.0,30.12,East,88,1.0,-999.0,54,-99.99,,,-99.99,,2013-01-11 09:23:00,
2013-01-11 04:32:00,40.0,24.0,30.11,East,82,0.0,-999.0,53,-99.99,,,-99.99,,2013-01-11 09:32:00,
2013-01-11 04:42:00,40.0,24.0,30.11,East,82,0.0,-999.0,53,-99.99,,,-99.99,,2013-01-11 09:42:00,
2013-01-11 04:52:00,40.0,24.0,30.10,East,79,0.0,-999.0,53,-99.99,,,-99.99,,2013-01-11 09:52:00,
2013-01-11 05:02:00,40.0,25.0,30.09,SE,137,1.0,-999.0,54,-99.99,,,-99.99,,2013-01-11 10:02:00,
2013-01-11 05:12:00,40.0,25.0,30.09,SE,137,1.0,-999.0,54,-99.99,,,-99.99,,2013-01-11 10:12:00,
2013-01-11 05:22:00,40.0,26.0,30.08,ENE,73,2.0,-999.0,56,-99.99,,,-99.99,,2013-01-11 10:22:00,
2013-01-11 05:32:00,40.0,26.0,30.07,ESE,113,2.0,-999.0,56,-99.99,,,-99.99,,2013-01-11 10:32:00,
2013-01-11 05:42:00,40.0,26.0,30.07,ESE,113,2.0,-999.0,56,-99.99,,,-99.99,,2013-01-11 10:42:00,
2013-01-11 05:52:00,40.0,26.0,30.06,East,100,2.0,-999.0,56,-99.99,,,-99.99,,2013-01-11 10:52:00,
2013-01-11 06:03:00,40.0,26.0,30.05,SE,131,0.0,-999.0,57,-99.99,,,-99.99,,2013-01-11 11:03:00,
2013-01-11 06:12:00,40.0,26.0,30.05,SE,131,0.0,-999.0,57,-99.99,,,-99.99,,2013-01-11 11:12:00,
2013-01-11 06:22:00,40.0,26.0,30.06,ESE,106,2.0,-999.0,58,-99.99,,,-99.99,,2013-01-11 11:22:00,
2013-01-11 06:33:00,41.0,28.0,30.05,SSW,193,2.0,-999.0,59,-99.99,,,-99.99,,2013-01-11 11:33:00,
2013-01-11 06:43:00,41.0,28.0,30.05,SSW,193,2.0,-999.0,59,-99.99,,,-99.99,,2013-01-11 11:43:00,
2013-01-11 06:53:00,41.0,27.0,30.03,SSW,206,3.0,-999.0,58,-99.99,,,-99.99,,2013-01-11 11:53:00,
2013-01-11 07:03:00,41.0,27.0,30.03,SSE,155,4.0,-999.0,58,-99.99,,,-99.99,,2013-01-11 12:03:00,
2013-01-11 07:12:00,41.0,27.0,30.03,SSE,155,4.0,-999.0,58,-99.99,,,-99.99,,2013-01-11 12:12:00,
2013-01-11 07:22:00,41.0,27.0,30.02,SW,217,3.0,-999.0,58,-99.99,,,-99.99,,2013-01-11 12:22:00,
2013-01-11 07:33:00,41.0,28.0,30.04,ENE,73,4.0,-999.0,59,-99.99,,,-99.99,,2013-01-11 12:33:00,
2013-01-11 07:43:00,41.0,28.0,30.04,ENE,73,4.0,-999.0,59,-99.99,,,-99.99,,2013-01-11 12:43:00,
2013-01-11 07:52:00,41.0,28.0,30.03,South,181,3.0,-999.0,59,-99.99,,,-99.99,,2013-01-11 12:52:00,
2013-01-11 08:03:00,41.0,28.0,30.03,SE,137,8.0,-999.0,59,-99.99,,,-99.99,,2013-01-11 13:03:00,
2013-01-11 08:13:00,41.0,28.0,30.03,SE,137,8.0,-999.0,59,-99.99,,,-99.99,,2013-01-11 13:13:00,
2013-01-11 08:22:00,41.0,28.0,30.02,ESE,106,4.0,-999.0,59,-99.99,,,-99.99,,2013-01-11 13:22:00,
2013-01-11 08:33:00,42.0,29.0,30.02,SE,124,4.0,-999.0,59,-99.99,,,-99.99,,2013-01-11 13:33:00,
2013-01-11 08:43:00,42.0,29.0,30.02,SE,124,4.0,-999.0,59,-99.99,,,-99.99,,2013-01-11 13:43:00,
2013-01-11 08:52:00,42.0,29.0,30.02,ESE,110,1.0,-999.0,60,-99.99,,,-99.99,,2013-01-11 13:52:00,
2013-01-11 09:03:00,42.0,29.0,30.02,ESE,114,5.0,-999.0,60,-99.99,,,-99.99,,2013-01-11 14:03:00,
2013-01-11 09:12:00,42.0,29.0,30.02,ESE,114,5.0,-999.0,60,-99.99,,,-99.99,,2013-01-11 14:12:00,
2013-01-11 09:23:00,42.0,30.0,30.01,ENE,75,5.0,-999.0,63,-99.99,,,-99.99,,2013-01-11 14:23:00,
2013-01-11 09:33:00,42.0,32.0,30.00,ESE,103,4.0,-999.0,67,-99.99,,,-99.99,,2013-01-11 14:33:00,
2013-01-11 09:43:00,42.0,32.0,30.00,ESE,103,4.0,-999.0,67,-99.99,,,-99.99,,2013-01-11 14:43:00,
2013-01-11 09:53:00,42.0,31.0,29.99,SE,137,7.0,-999.0,66,-99.99,,,-99.99,,2013-01-11 14:53:00,
2013-01-11 10:03:00,42.0,31.0,29.99,SE,137,7.0,-999.0,66,-99.99,,,-99.99,,2013-01-11 15:03:00,
2013-01-11 10:13:00,44.0,33.0,29.96,SSE,147,2.0,-999.0,66,-99.99,,,-99.99,,2013-01-11 15:13:00,
2013-01-11 10:23:00,44.0,33.0,29.96,SSE,147,2.0,-999.0,66,-99.99,,,-99.99,,2013-01-11 15:23:00,
2013-01-11 10:33:00,44.0,33.0,29.96,SSE,147,2.0,-999.0,66,-99.99,,,-99.99,,2013-01-11 15:33:00,
2013-01-11 10:43:00,44.0,33.0,29.96,SSE,147,2.0,-999.0,66,-99.99,,,-99.99,,2013-01-11 15:43:00,
2013-01-11 10:52:00,45.0,33.0,29.95,SE,124,8.0,-999.0,63,-99.99,,,-99.99,,2013-01-11 15:52:00,
2013-01-11 11:03:00,45.0,34.0,29.95,SSE,167,6.0,-999.0,64,-99.99,,,-99.99,,2013-01-11 16:03:00,
2013-01-11 11:13:00,45.0,34.0,29.95,SSE,167,6.0,-999.0,64,-99.99,,,-99.99,,2013-01-11 16:13:00,
2013-01-11 11:23:00,44.0,36.0,29.94,East,99,2.0,-999.0,73,-99.99,,,-99.99,,2013-01-11 16:23:00,
2013-01-11 11:33:00,43.0,35.0,29.95,SE,137,4.0,-999.0,73,-99.99,,,-99.99,,2013-01-11 16:33:00,
2013-01-11 11:43:00,43.0,35.0,29.95,SE,137,4.0,-999.0,73,-99.99,,,-99.99,,2013-01-11 16:43:00,
2013-01-11 11:53:00,42.0,34.0,29.94,SE,127,0.0,-999.0,73,-99.99,,,-99.99,,2013-01-11 16:53:00,
2013-01-11 13:24:00,-999.0,-99.9,29.86,East,97,0.0,-999.0,-999,-99.99,,,-99.99,,2013-01-11 18:24:00,
2013-01-11 13:33:00,41.0,-99.9,29.87,SE,128,11.0,-999.0,-999,-99.99,,,-99.99,,2013-01-11 18:33:00,
2013-01-11 13:43:00,41.0,-99.9,29.87,SE,128,11.0,-999.0,-999,-99.99,,,-99.99,,2013-01-11 18:43:00,
2013-01-11 14:33:00,44.0,42.0,29.81,SE,133,7.0,-999.0,92,-99.99,,,-99.99,,2013-01-11 19:33:00,
2013-01-11 14:43:00,44.0,42.0,29.81,SE,133,7.0,-999.0,92,-99.99,,,-99.99,,2013-01-11 19:43:00,
2013-01-11 14:53:00,44.0,42.0,29.82,SSE,161,6.0,-999.0,91,-99.99,,,-99.99,,2013-01-11 19:53:00,
2013-01-11 15:03:00,44.0,42.0,29.83,South,191,5.0,-999.0,91,-99.99,,,-99.99,,2013-01-11 20:03:00,
2013-01-11 15:13:00,44.0,42.0,29.83,South,191,5.0,-999.0,91,-99.99,,,-99.99,,2013-01-11 20:13:00,
2013-01-11 15:22:00,43.0,41.0,29.83,SSE,154,3.0,-999.0,91,-99.99,,,-99.99,,2013-01-11 20:22:00,
2013-01-11 15:53:00,-999.0,-99.9,29.85,SSE,162,1.0,-999.0,-999,-99.99,,,-99.99,,2013-01-11 20:53:00,
2013-01-11 18:23:00,45.0,-99.9,29.85,South,178,1.0,-999.0,-999,-99.99,,,-99.99,,2013-01-11 23:23:00,
2013-01-11 18:33:00,45.0,-99.9,29.85,SSE,150,2.0,-999.0,-999,-99.99,,,-99.99,,2013-01-11 23:33:00,
2013-01-11 18:43:00,45.0,-99.9,29.85,SSE,150,2.0,-999.0,-999,-99.99,,,-99.99,,2013-01-11 23:43:00,
2013-01-11 19:23:00,-999.0,-99.9,29.87,SW,217,0.0,-999.0,-999,-99.99,,,-99.99,,2013-01-12 00:23:00,
2013-01-11 19:33:00,45.0,-99.9,29.88,SSW,196,3.0,-999.0,-999,-99.99,,,-99.99,,2013-01-12 00:33:00,
2013-01-11 19:43:00,45.0,-99.9,29.88,SSW,196,3.0,-999.0,-999,-99.99,,,-99.99,,2013-01-12 00:43:00,
2013-01-11 19:52:00,45.0,43.0,29.88,SE,141,3.0,-999.0,94,-99.99,,,-99.99,,2013-01-12 00:52:00,
2013-01-11 20:03:00,45.0,43.0,29.88,South,171,3.0,-999.0,94,-99.99,,,-99.99,,2013-01-12 01:03:00,
2013-01-11 20:12:00,45.0,43.0,29.88,South,171,3.0,-999.0,94,-99.99,,,-99.99,,2013-01-12 01:12:00,
2013-01-11 20:22:00,46.0,44.0,29.88,South,175,1.0,-999.0,94,-99.99,,,-99.99,,2013-01-12 01:22:00,
2013-01-11 22:03:00,46.0,-99.9,29.89,SE,143,2.0,-999.0,-999,-99.99,,,-99.99,,2013-01-12 03:03:00,
2013-01-11 22:12:00,46.0,-99.9,29.89,SE,143,2.0,-999.0,-999,-99.99,,,-99.99,,2013-01-12 03:12:00,
2013-01-11 22:22:00,45.0,43.0,29.88,SSE,168,1.0,-999.0,94,-99.99,,,-99.99,,2013-01-12 03:22:00,
2013-01-11 22:33:00,46.0,44.0,29.89,South,175,2.0,-999.0,94,-99.99,,,-99.99,,2013-01-12 03:33:00,
2013-01-11 22:43:00,46.0,44.0,29.89,South,175,2.0,-999.0,94,-99.99,,,-99.99,,2013-01-12 03:43:00,
2013-01-11 22:52:00,46.0,45.0,29.89,South,184,0.0,-999.0,95,-99.99,,,-99.99,,2013-01-12 03:52:00,
2013-01-11 23:02:00,46.0,45.0,29.89,South,184,0.0,-999.0,95,-99.99,,,-99.99,,2013-01-12 04:02:00,
2013-01-11 23:12:00,46.0,45.0,29.89,South,184,0.0,-999.0,95,-99.99,,,-99.99,,2013-01-12 04:12:00,
2013-01-11 23:52:00,45.0,44.0,29.83,SSW,205,2.0,-999.0,95,-99.99,,,-99.99,,2013-01-12 04:52:00,